sensor_id;sensor_type;location;lat;lon;timestamp;P1;durP1;ratioP1;P2;durP2;ratioP2
14205;SDS011;7186;48.800;9.216;2023-08-24T00:01:46;23.67;;;21.30;;
14205;SDS011;7186;48.800;9.216;2023-08-24T00:04:11;24.63;;;22.13;;
14205;SDS011;7186;48.800;9.216;2023-08-24T00:06:37;23.40;;;21.10;;
14205;SDS011;7186;48.800;9.216;2023-08-24T00:09:03;23.50;;;21.20;;
14205;SDS011;7186;48.800;9.216;2023-08-24T00:11:30;23.90;;;21.50;;
14205;SDS011;7186;48.800;9.216;2023-08-24T00:13:55;23.80;;;21.40;;
14205;SDS011;7186;48.800;9.216;2023-08-24T00:16:20;24.37;;;21.87;;
14205;SDS011;7186;48.800;9.216;2023-08-24T00:18:46;24.07;;;21.57;;
14205;SDS011;7186;48.800;9.216;2023-08-24T00:21:15;24.03;;;21.53;;
14205;SDS011;7186;48.800;9.216;2023-08-24T00:23:47;24.47;;;21.97;;
14205;SDS011;7186;48.800;9.216;2023-08-24T00:26:13;24.23;;;21.73;;
14205;SDS011;7186;48.800;9.216;2023-08-24T00:28:38;24.30;;;21.80;;
14205;SDS011;7186;48.800;9.216;2023-08-24T00:31:03;24.47;;;21.97;;
14205;SDS011;7186;48.800;9.216;2023-08-24T00:33:28;23.87;;;21.47;;
14205;SDS011;7186;48.800;9.216;2023-08-24T00:35:58;24.23;;;21.83;;
14205;SDS011;7186;48.800;9.216;2023-08-24T00:38:23;24.20;;;21.80;;
14205;SDS011;7186;48.800;9.216;2023-08-24T00:40:49;24.03;;;21.63;;
14205;SDS011;7186;48.800;9.216;2023-08-24T00:43:17;24.50;;;22.10;;
14205;SDS011;7186;48.800;9.216;2023-08-24T00:45:47;23.63;;;21.33;;
14205;SDS011;7186;48.800;9.216;2023-08-24T00:48:12;25.53;;;23.03;;
14205;SDS011;7186;48.800;9.216;2023-08-24T00:50:37;25.57;;;22.97;;
14205;SDS011;7186;48.800;9.216;2023-08-24T00:53:02;25.33;;;22.73;;
14205;SDS011;7186;48.800;9.216;2023-08-24T00:55:28;25.13;;;22.53;;
14205;SDS011;7186;48.800;9.216;2023-08-24T00:57:53;25.30;;;22.70;;
14205;SDS011;7186;48.800;9.216;2023-08-24T01:00:18;24.73;;;22.13;;
14205;SDS011;7186;48.800;9.216;2023-08-24T01:02:43;25.57;;;22.93;;
14205;SDS011;7186;48.800;9.216;2023-08-24T01:05:09;24.20;;;21.70;;
14205;SDS011;7186;48.800;9.216;2023-08-24T01:07:34;26.00;;;23.30;;
14205;SDS011;7186;48.800;9.216;2023-08-24T01:10:02;24.03;;;21.53;;
14205;SDS011;7186;48.800;9.216;2023-08-24T01:15:17;25.23;;;22.63;;
14205;SDS011;7186;48.800;9.216;2023-08-24T01:17:43;25.10;;;22.50;;
14205;SDS011;7186;48.800;9.216;2023-08-24T01:20:09;23.90;;;21.40;;
14205;SDS011;7186;48.800;9.216;2023-08-24T01:25:16;24.27;;;21.77;;
14205;SDS011;7186;48.800;9.216;2023-08-24T01:27:42;23.00;;;20.70;;
14205;SDS011;7186;48.800;9.216;2023-08-24T01:30:09;23.00;;;20.70;;
14205;SDS011;7186;48.800;9.216;2023-08-24T01:32:34;22.20;;;20.00;;
14205;SDS011;7186;48.800;9.216;2023-08-24T01:35:07;22.23;;;20.03;;
14205;SDS011;7186;48.800;9.216;2023-08-24T01:37:33;24.80;;;22.40;;
14205;SDS011;7186;48.800;9.216;2023-08-24T01:42:30;22.47;;;20.37;;
14205;SDS011;7186;48.800;9.216;2023-08-24T01:44:56;22.20;;;20.10;;
14205;SDS011;7186;48.800;9.216;2023-08-24T01:47:23;22.03;;;19.93;;
14205;SDS011;7186;48.800;9.216;2023-08-24T01:49:49;21.73;;;19.63;;
14205;SDS011;7186;48.800;9.216;2023-08-24T01:52:15;23.20;;;20.90;;
14205;SDS011;7186;48.800;9.216;2023-08-24T01:54:40;23.03;;;20.73;;
14205;SDS011;7186;48.800;9.216;2023-08-24T01:57:05;23.80;;;21.30;;
14205;SDS011;7186;48.800;9.216;2023-08-24T01:59:31;25.40;;;22.80;;
14205;SDS011;7186;48.800;9.216;2023-08-24T02:01:56;23.63;;;21.23;;
14205;SDS011;7186;48.800;9.216;2023-08-24T02:04:22;24.87;;;22.33;;
14205;SDS011;7186;48.800;9.216;2023-08-24T02:06:47;25.77;;;23.10;;
14205;SDS011;7186;48.800;9.216;2023-08-24T02:09:12;23.37;;;20.97;;
14205;SDS011;7186;48.800;9.216;2023-08-24T02:11:37;24.87;;;22.27;;
14205;SDS011;7186;48.800;9.216;2023-08-24T02:14:03;24.20;;;21.70;;
14205;SDS011;7186;48.800;9.216;2023-08-24T02:16:28;24.20;;;21.70;;
14205;SDS011;7186;48.800;9.216;2023-08-24T02:18:54;23.97;;;21.47;;
14205;SDS011;7186;48.800;9.216;2023-08-24T02:21:19;23.97;;;21.47;;
14205;SDS011;7186;48.800;9.216;2023-08-24T02:23:44;25.17;;;22.57;;
14205;SDS011;7186;48.800;9.216;2023-08-24T02:26:10;24.83;;;22.23;;
14205;SDS011;7186;48.800;9.216;2023-08-24T02:28:36;25.50;;;22.80;;
14205;SDS011;7186;48.800;9.216;2023-08-24T02:31:02;25.33;;;22.73;;
14205;SDS011;7186;48.800;9.216;2023-08-24T02:33:27;24.53;;;21.93;;
14205;SDS011;7186;48.800;9.216;2023-08-24T02:35:52;23.90;;;21.40;;
14205;SDS011;7186;48.800;9.216;2023-08-24T02:38:18;23.70;;;21.20;;
14205;SDS011;7186;48.800;9.216;2023-08-24T02:40:43;24.57;;;22.07;;
14205;SDS011;7186;48.800;9.216;2023-08-24T02:43:08;24.60;;;22.07;;
14205;SDS011;7186;48.800;9.216;2023-08-24T02:45:33;25.33;;;22.73;;
14205;SDS011;7186;48.800;9.216;2023-08-24T02:47:58;24.03;;;21.53;;
14205;SDS011;7186;48.800;9.216;2023-08-24T02:50:23;26.07;;;23.37;;
14205;SDS011;7186;48.800;9.216;2023-08-24T02:52:49;25.00;;;22.40;;
14205;SDS011;7186;48.800;9.216;2023-08-24T02:55:16;25.07;;;22.47;;
14205;SDS011;7186;48.800;9.216;2023-08-24T02:57:41;25.37;;;22.73;;
14205;SDS011;7186;48.800;9.216;2023-08-24T03:00:07;24.53;;;21.97;;
14205;SDS011;7186;48.800;9.216;2023-08-24T03:02:32;25.73;;;23.03;;
14205;SDS011;7186;48.800;9.216;2023-08-24T03:04:57;25.23;;;22.63;;
14205;SDS011;7186;48.800;9.216;2023-08-24T03:07:22;25.57;;;22.97;;
14205;SDS011;7186;48.800;9.216;2023-08-24T03:09:48;24.40;;;21.90;;
14205;SDS011;7186;48.800;9.216;2023-08-24T03:12:13;25.13;;;22.53;;
14205;SDS011;7186;48.800;9.216;2023-08-24T03:14:38;25.87;;;23.20;;
14205;SDS011;7186;48.800;9.216;2023-08-24T03:17:03;25.50;;;22.90;;
14205;SDS011;7186;48.800;9.216;2023-08-24T03:19:29;24.73;;;22.17;;
14205;SDS011;7186;48.800;9.216;2023-08-24T03:21:54;25.67;;;22.97;;
14205;SDS011;7186;48.800;9.216;2023-08-24T03:24:20;24.50;;;21.93;;
14205;SDS011;7186;48.800;9.216;2023-08-24T03:26:46;24.60;;;22.00;;
14205;SDS011;7186;48.800;9.216;2023-08-24T03:29:11;25.30;;;22.70;;
14205;SDS011;7186;48.800;9.216;2023-08-24T03:31:37;25.47;;;22.87;;
14205;SDS011;7186;48.800;9.216;2023-08-24T03:34:02;25.13;;;22.53;;
14205;SDS011;7186;48.800;9.216;2023-08-24T03:36:29;24.00;;;21.50;;
14205;SDS011;7186;48.800;9.216;2023-08-24T03:38:54;24.00;;;21.50;;
14205;SDS011;7186;48.800;9.216;2023-08-24T03:41:19;24.83;;;22.30;;
14205;SDS011;7186;48.800;9.216;2023-08-24T03:43:44;24.37;;;21.87;;
14205;SDS011;7186;48.800;9.216;2023-08-24T03:46:11;25.20;;;22.60;;
14205;SDS011;7186;48.800;9.216;2023-08-24T03:48:36;23.47;;;21.07;;
14205;SDS011;7186;48.800;9.216;2023-08-24T03:51:01;24.60;;;22.10;;
14205;SDS011;7186;48.800;9.216;2023-08-24T03:53:27;23.80;;;21.40;;
14205;SDS011;7186;48.800;9.216;2023-08-24T03:55:52;24.37;;;21.90;;
14205;SDS011;7186;48.800;9.216;2023-08-24T03:58:17;24.23;;;21.83;;
14205;SDS011;7186;48.800;9.216;2023-08-24T04:00:43;24.60;;;22.10;;
14205;SDS011;7186;48.800;9.216;2023-08-24T04:03:08;24.37;;;21.87;;
14205;SDS011;7186;48.800;9.216;2023-08-24T04:05:34;24.50;;;22.00;;
14205;SDS011;7186;48.800;9.216;2023-08-24T04:08:00;24.40;;;21.90;;
14205;SDS011;7186;48.800;9.216;2023-08-24T04:10:26;24.70;;;22.10;;
14205;SDS011;7186;48.800;9.216;2023-08-24T04:12:51;24.00;;;21.50;;
14205;SDS011;7186;48.800;9.216;2023-08-24T04:15:17;24.07;;;21.57;;
14205;SDS011;7186;48.800;9.216;2023-08-24T04:17:42;25.40;;;22.80;;
14205;SDS011;7186;48.800;9.216;2023-08-24T04:20:07;25.73;;;23.10;;
14205;SDS011;7186;48.800;9.216;2023-08-24T04:22:33;25.27;;;22.67;;
14205;SDS011;7186;48.800;9.216;2023-08-24T04:24:58;24.33;;;21.83;;
14205;SDS011;7186;48.800;9.216;2023-08-24T04:27:23;23.70;;;21.27;;
14205;SDS011;7186;48.800;9.216;2023-08-24T04:29:48;24.63;;;22.13;;
14205;SDS011;7186;48.800;9.216;2023-08-24T04:32:14;24.43;;;21.93;;
14205;SDS011;7186;48.800;9.216;2023-08-24T04:34:39;23.83;;;21.40;;
14205;SDS011;7186;48.800;9.216;2023-08-24T04:37:05;23.83;;;21.43;;
14205;SDS011;7186;48.800;9.216;2023-08-24T04:39:30;25.83;;;23.23;;
14205;SDS011;7186;48.800;9.216;2023-08-24T04:41:55;24.43;;;21.93;;
14205;SDS011;7186;48.800;9.216;2023-08-24T04:44:21;23.50;;;21.10;;
14205;SDS011;7186;48.800;9.216;2023-08-24T04:46:46;22.63;;;20.33;;
14205;SDS011;7186;48.800;9.216;2023-08-24T04:49:11;22.73;;;20.43;;
14205;SDS011;7186;48.800;9.216;2023-08-24T04:51:36;22.77;;;20.47;;
14205;SDS011;7186;48.800;9.216;2023-08-24T04:54:01;21.53;;;19.43;;
14205;SDS011;7186;48.800;9.216;2023-08-24T04:56:27;20.90;;;18.90;;
14205;SDS011;7186;48.800;9.216;2023-08-24T04:58:56;22.30;;;20.10;;
14205;SDS011;7186;48.800;9.216;2023-08-24T05:01:22;23.53;;;21.13;;
14205;SDS011;7186;48.800;9.216;2023-08-24T05:03:47;24.37;;;21.87;;
14205;SDS011;7186;48.800;9.216;2023-08-24T05:06:12;24.33;;;21.83;;
14205;SDS011;7186;48.800;9.216;2023-08-24T05:08:37;23.83;;;21.43;;
14205;SDS011;7186;48.800;9.216;2023-08-24T05:11:09;24.40;;;21.90;;
14205;SDS011;7186;48.800;9.216;2023-08-24T05:13:35;23.43;;;21.03;;
14205;SDS011;7186;48.800;9.216;2023-08-24T05:16:00;22.50;;;20.20;;
14205;SDS011;7186;48.800;9.216;2023-08-24T05:18:25;24.07;;;21.67;;
14205;SDS011;7186;48.800;9.216;2023-08-24T05:20:50;22.87;;;20.57;;
14205;SDS011;7186;48.800;9.216;2023-08-24T05:23:16;25.17;;;22.67;;
14205;SDS011;7186;48.800;9.216;2023-08-24T05:25:41;23.97;;;21.57;;
14205;SDS011;7186;48.800;9.216;2023-08-24T05:28:06;23.30;;;20.90;;
14205;SDS011;7186;48.800;9.216;2023-08-24T05:30:32;23.07;;;20.67;;
14205;SDS011;7186;48.800;9.216;2023-08-24T05:32:57;24.20;;;21.73;;
14205;SDS011;7186;48.800;9.216;2023-08-24T05:35:22;24.33;;;21.83;;
14205;SDS011;7186;48.800;9.216;2023-08-24T05:37:48;23.17;;;20.87;;
14205;SDS011;7186;48.800;9.216;2023-08-24T05:40:13;22.60;;;20.37;;
14205;SDS011;7186;48.800;9.216;2023-08-24T05:42:39;22.80;;;20.53;;
14205;SDS011;7186;48.800;9.216;2023-08-24T05:45:04;22.40;;;20.20;;
14205;SDS011;7186;48.800;9.216;2023-08-24T05:47:31;22.60;;;20.40;;
14205;SDS011;7186;48.800;9.216;2023-08-24T05:49:56;22.33;;;20.13;;
14205;SDS011;7186;48.800;9.216;2023-08-24T05:52:21;22.67;;;20.37;;
14205;SDS011;7186;48.800;9.216;2023-08-24T05:54:46;23.20;;;20.80;;
14205;SDS011;7186;48.800;9.216;2023-08-24T05:57:12;23.90;;;21.40;;
14205;SDS011;7186;48.800;9.216;2023-08-24T05:59:37;24.30;;;21.73;;
14205;SDS011;7186;48.800;9.216;2023-08-24T06:02:02;24.73;;;22.17;;
14205;SDS011;7186;48.800;9.216;2023-08-24T06:04:28;24.10;;;21.60;;
14205;SDS011;7186;48.800;9.216;2023-08-24T06:06:53;24.20;;;21.70;;
14205;SDS011;7186;48.800;9.216;2023-08-24T06:09:18;24.60;;;22.07;;
14205;SDS011;7186;48.800;9.216;2023-08-24T06:11:44;24.17;;;21.67;;
14205;SDS011;7186;48.800;9.216;2023-08-24T06:14:10;24.90;;;22.30;;
14205;SDS011;7186;48.800;9.216;2023-08-24T06:16:35;25.53;;;22.93;;
14205;SDS011;7186;48.800;9.216;2023-08-24T06:19:00;24.53;;;21.93;;
14205;SDS011;7186;48.800;9.216;2023-08-24T06:21:25;25.33;;;22.63;;
14205;SDS011;7186;48.800;9.216;2023-08-24T06:23:51;24.77;;;22.17;;
14205;SDS011;7186;48.800;9.216;2023-08-24T06:26:17;23.97;;;21.43;;
14205;SDS011;7186;48.800;9.216;2023-08-24T06:28:42;24.67;;;22.07;;
14205;SDS011;7186;48.800;9.216;2023-08-24T06:31:07;24.10;;;21.60;;
14205;SDS011;7186;48.800;9.216;2023-08-24T06:33:35;24.27;;;21.77;;
14205;SDS011;7186;48.800;9.216;2023-08-24T06:36:02;23.93;;;21.43;;
14205;SDS011;7186;48.800;9.216;2023-08-24T06:38:27;23.97;;;21.47;;
14205;SDS011;7186;48.800;9.216;2023-08-24T06:40:53;23.30;;;20.90;;
14205;SDS011;7186;48.800;9.216;2023-08-24T06:43:19;23.00;;;20.60;;
14205;SDS011;7186;48.800;9.216;2023-08-24T06:45:44;24.63;;;22.10;;
14205;SDS011;7186;48.800;9.216;2023-08-24T06:48:09;24.20;;;21.70;;
14205;SDS011;7186;48.800;9.216;2023-08-24T06:50:34;24.90;;;22.30;;
14205;SDS011;7186;48.800;9.216;2023-08-24T06:53:01;23.77;;;21.37;;
14205;SDS011;7186;48.800;9.216;2023-08-24T06:55:28;23.73;;;21.33;;
14205;SDS011;7186;48.800;9.216;2023-08-24T06:57:53;24.83;;;22.33;;
14205;SDS011;7186;48.800;9.216;2023-08-24T07:00:19;23.47;;;21.07;;
14205;SDS011;7186;48.800;9.216;2023-08-24T07:02:45;23.73;;;21.33;;
14205;SDS011;7186;48.800;9.216;2023-08-24T07:05:10;23.57;;;21.17;;
14205;SDS011;7186;48.800;9.216;2023-08-24T07:07:37;24.47;;;21.97;;
14205;SDS011;7186;48.800;9.216;2023-08-24T07:10:02;23.57;;;21.17;;
14205;SDS011;7186;48.800;9.216;2023-08-24T07:12:28;23.97;;;21.50;;
14205;SDS011;7186;48.800;9.216;2023-08-24T07:14:54;23.53;;;21.13;;
14205;SDS011;7186;48.800;9.216;2023-08-24T07:17:19;24.30;;;21.80;;
14205;SDS011;7186;48.800;9.216;2023-08-24T07:19:44;24.57;;;22.07;;
14205;SDS011;7186;48.800;9.216;2023-08-24T07:22:11;23.40;;;21.00;;
14205;SDS011;7186;48.800;9.216;2023-08-24T07:24:36;23.93;;;21.53;;
14205;SDS011;7186;48.800;9.216;2023-08-24T07:27:02;23.70;;;21.30;;
14205;SDS011;7186;48.800;9.216;2023-08-24T07:29:29;25.73;;;23.13;;
14205;SDS011;7186;48.800;9.216;2023-08-24T07:31:54;23.73;;;21.33;;
14205;SDS011;7186;48.800;9.216;2023-08-24T07:34:20;25.03;;;22.53;;
14205;SDS011;7186;48.800;9.216;2023-08-24T07:36:47;24.83;;;22.33;;
14205;SDS011;7186;48.800;9.216;2023-08-24T07:39:13;24.70;;;22.20;;
14205;SDS011;7186;48.800;9.216;2023-08-24T07:41:39;24.30;;;21.90;;
14205;SDS011;7186;48.800;9.216;2023-08-24T07:44:04;23.43;;;21.10;;
14205;SDS011;7186;48.800;9.216;2023-08-24T07:46:29;23.20;;;20.90;;
14205;SDS011;7186;48.800;9.216;2023-08-24T07:48:55;23.13;;;20.83;;
14205;SDS011;7186;48.800;9.216;2023-08-24T07:51:21;24.57;;;22.10;;
14205;SDS011;7186;48.800;9.216;2023-08-24T07:53:46;23.03;;;20.73;;
14205;SDS011;7186;48.800;9.216;2023-08-24T07:56:11;23.20;;;20.90;;
14205;SDS011;7186;48.800;9.216;2023-08-24T07:58:36;24.17;;;21.77;;
14205;SDS011;7186;48.800;9.216;2023-08-24T08:01:02;24.03;;;21.63;;
14205;SDS011;7186;48.800;9.216;2023-08-24T08:03:27;23.77;;;21.43;;
14205;SDS011;7186;48.800;9.216;2023-08-24T08:05:53;24.00;;;21.60;;
14205;SDS011;7186;48.800;9.216;2023-08-24T08:08:18;23.77;;;21.37;;
14205;SDS011;7186;48.800;9.216;2023-08-24T08:10:44;24.37;;;21.97;;
14205;SDS011;7186;48.800;9.216;2023-08-24T08:13:09;23.37;;;21.07;;
14205;SDS011;7186;48.800;9.216;2023-08-24T08:15:37;23.40;;;21.10;;
14205;SDS011;7186;48.800;9.216;2023-08-24T08:18:03;22.93;;;20.63;;
14205;SDS011;7186;48.800;9.216;2023-08-24T08:20:29;23.53;;;21.23;;
14205;SDS011;7186;48.800;9.216;2023-08-24T08:22:54;23.47;;;21.17;;
14205;SDS011;7186;48.800;9.216;2023-08-24T08:25:19;23.60;;;21.30;;
14205;SDS011;7186;48.800;9.216;2023-08-24T08:27:47;23.20;;;20.90;;
14205;SDS011;7186;48.800;9.216;2023-08-24T08:30:12;23.67;;;21.37;;
14205;SDS011;7186;48.800;9.216;2023-08-24T08:32:37;22.83;;;20.63;;
14205;SDS011;7186;48.800;9.216;2023-08-24T08:35:03;24.27;;;21.87;;
14205;SDS011;7186;48.800;9.216;2023-08-24T08:37:30;24.50;;;22.10;;
14205;SDS011;7186;48.800;9.216;2023-08-24T08:39:55;23.33;;;21.03;;
14205;SDS011;7186;48.800;9.216;2023-08-24T08:42:20;24.20;;;21.80;;
14205;SDS011;7186;48.800;9.216;2023-08-24T08:44:46;23.60;;;21.30;;
14205;SDS011;7186;48.800;9.216;2023-08-24T08:47:12;24.23;;;21.87;;
14205;SDS011;7186;48.800;9.216;2023-08-24T08:49:43;23.20;;;21.00;;
14205;SDS011;7186;48.800;9.216;2023-08-24T08:52:10;23.03;;;20.83;;
14205;SDS011;7186;48.800;9.216;2023-08-24T08:54:35;23.70;;;21.40;;
14205;SDS011;7186;48.800;9.216;2023-08-24T08:57:00;23.07;;;20.87;;
14205;SDS011;7186;48.800;9.216;2023-08-24T08:59:27;24.57;;;22.17;;
14205;SDS011;7186;48.800;9.216;2023-08-24T09:01:54;23.90;;;21.60;;
14205;SDS011;7186;48.800;9.216;2023-08-24T09:04:20;24.20;;;21.90;;
14205;SDS011;7186;48.800;9.216;2023-08-24T09:06:45;23.07;;;20.87;;
14205;SDS011;7186;48.800;9.216;2023-08-24T09:09:11;23.20;;;21.00;;
14205;SDS011;7186;48.800;9.216;2023-08-24T09:11:36;23.50;;;21.20;;
14205;SDS011;7186;48.800;9.216;2023-08-24T09:14:01;23.77;;;21.47;;
14205;SDS011;7186;48.800;9.216;2023-08-24T09:16:30;24.03;;;21.73;;
14205;SDS011;7186;48.800;9.216;2023-08-24T09:18:55;24.10;;;21.80;;
14205;SDS011;7186;48.800;9.216;2023-08-24T09:21:21;23.23;;;20.97;;
14205;SDS011;7186;48.800;9.216;2023-08-24T09:26:16;22.87;;;20.67;;
14205;SDS011;7186;48.800;9.216;2023-08-24T09:28:42;23.60;;;21.30;;
14205;SDS011;7186;48.800;9.216;2023-08-24T09:31:08;24.10;;;21.77;;
14205;SDS011;7186;48.800;9.216;2023-08-24T09:33:33;23.87;;;21.57;;
14205;SDS011;7186;48.800;9.216;2023-08-24T09:35:58;23.77;;;21.47;;
14205;SDS011;7186;48.800;9.216;2023-08-24T09:38:28;23.80;;;21.50;;
14205;SDS011;7186;48.800;9.216;2023-08-24T09:40:54;23.00;;;20.80;;
14205;SDS011;7186;48.800;9.216;2023-08-24T09:43:20;22.57;;;20.43;;
14205;SDS011;7186;48.800;9.216;2023-08-24T09:45:52;23.43;;;21.23;;
14205;SDS011;7186;48.800;9.216;2023-08-24T09:48:18;23.00;;;20.80;;
14205;SDS011;7186;48.800;9.216;2023-08-24T09:50:46;23.60;;;21.30;;
14205;SDS011;7186;48.800;9.216;2023-08-24T09:53:22;23.70;;;21.40;;
14205;SDS011;7186;48.800;9.216;2023-08-24T09:58:19;23.83;;;21.57;;
14205;SDS011;7186;48.800;9.216;2023-08-24T10:00:45;24.80;;;22.40;;
14205;SDS011;7186;48.800;9.216;2023-08-24T10:03:11;24.53;;;22.23;;
14205;SDS011;7186;48.800;9.216;2023-08-24T10:05:39;24.63;;;22.33;;
14205;SDS011;7186;48.800;9.216;2023-08-24T10:08:04;24.57;;;22.27;;
14205;SDS011;7186;48.800;9.216;2023-08-24T10:10:31;24.53;;;22.23;;
14205;SDS011;7186;48.800;9.216;2023-08-24T10:12:59;25.03;;;22.63;;
14205;SDS011;7186;48.800;9.216;2023-08-24T10:15:26;25.10;;;22.70;;
14205;SDS011;7186;48.800;9.216;2023-08-24T10:17:51;25.90;;;23.40;;
14205;SDS011;7186;48.800;9.216;2023-08-24T10:20:18;24.27;;;21.97;;
14205;SDS011;7186;48.800;9.216;2023-08-24T10:22:45;24.87;;;22.47;;
14205;SDS011;7186;48.800;9.216;2023-08-24T10:25:12;23.47;;;21.23;;
14205;SDS011;7186;48.800;9.216;2023-08-24T10:27:38;24.33;;;22.03;;
14205;SDS011;7186;48.800;9.216;2023-08-24T10:30:08;22.97;;;20.77;;
14205;SDS011;7186;48.800;9.216;2023-08-24T10:32:34;23.37;;;21.17;;
14205;SDS011;7186;48.800;9.216;2023-08-24T10:34:59;23.63;;;21.37;;
14205;SDS011;7186;48.800;9.216;2023-08-24T10:37:25;25.80;;;23.30;;
14205;SDS011;7186;48.800;9.216;2023-08-24T10:39:50;24.67;;;22.27;;
14205;SDS011;7186;48.800;9.216;2023-08-24T10:42:16;25.13;;;22.63;;
14205;SDS011;7186;48.800;9.216;2023-08-24T10:44:45;23.90;;;21.57;;
14205;SDS011;7186;48.800;9.216;2023-08-24T10:47:15;24.23;;;21.83;;
14205;SDS011;7186;48.800;9.216;2023-08-24T10:49:59;24.90;;;22.50;;
14205;SDS011;7186;48.800;9.216;2023-08-24T10:52:32;25.63;;;23.13;;
14205;SDS011;7186;48.800;9.216;2023-08-24T10:55:00;24.20;;;21.80;;
14205;SDS011;7186;48.800;9.216;2023-08-24T10:57:26;23.93;;;21.57;;
14205;SDS011;7186;48.800;9.216;2023-08-24T10:59:58;24.27;;;21.87;;
14205;SDS011;7186;48.800;9.216;2023-08-24T11:02:24;23.77;;;21.47;;
14205;SDS011;7186;48.800;9.216;2023-08-24T11:07:34;23.53;;;21.23;;
14205;SDS011;7186;48.800;9.216;2023-08-24T11:09:59;23.77;;;21.47;;
14205;SDS011;7186;48.800;9.216;2023-08-24T11:12:24;24.50;;;22.10;;
14205;SDS011;7186;48.800;9.216;2023-08-24T11:14:51;24.43;;;22.03;;
14205;SDS011;7186;48.800;9.216;2023-08-24T11:17:19;23.97;;;21.57;;
14205;SDS011;7186;48.800;9.216;2023-08-24T11:19:54;24.77;;;22.33;;
14205;SDS011;7186;48.800;9.216;2023-08-24T11:22:19;24.60;;;22.17;;
14205;SDS011;7186;48.800;9.216;2023-08-24T11:24:46;25.20;;;22.70;;
14205;SDS011;7186;48.800;9.216;2023-08-24T11:27:12;23.60;;;21.33;;
14205;SDS011;7186;48.800;9.216;2023-08-24T11:29:39;24.53;;;22.17;;
14205;SDS011;7186;48.800;9.216;2023-08-24T11:32:04;23.43;;;21.13;;
14205;SDS011;7186;48.800;9.216;2023-08-24T11:34:30;24.10;;;21.80;;
14205;SDS011;7186;48.800;9.216;2023-08-24T11:36:55;24.07;;;21.77;;
14205;SDS011;7186;48.800;9.216;2023-08-24T11:39:21;24.73;;;22.33;;
14205;SDS011;7186;48.800;9.216;2023-08-24T11:41:59;24.70;;;22.30;;
14205;SDS011;7186;48.800;9.216;2023-08-24T11:44:24;24.23;;;21.90;;
14205;SDS011;7186;48.800;9.216;2023-08-24T11:46:49;24.37;;;22.00;;
14205;SDS011;7186;48.800;9.216;2023-08-24T11:49:15;24.47;;;22.07;;
14205;SDS011;7186;48.800;9.216;2023-08-24T11:51:40;25.50;;;23.00;;
14205;SDS011;7186;48.800;9.216;2023-08-24T11:54:05;24.90;;;22.47;;
14205;SDS011;7186;48.800;9.216;2023-08-24T11:56:31;24.57;;;22.17;;
14205;SDS011;7186;48.800;9.216;2023-08-24T11:58:56;24.80;;;22.33;;
14205;SDS011;7186;48.800;9.216;2023-08-24T12:01:21;24.57;;;22.17;;
14205;SDS011;7186;48.800;9.216;2023-08-24T12:03:47;24.60;;;22.20;;
14205;SDS011;7186;48.800;9.216;2023-08-24T12:06:13;23.43;;;21.13;;
14205;SDS011;7186;48.800;9.216;2023-08-24T12:08:44;25.03;;;22.63;;
14205;SDS011;7186;48.800;9.216;2023-08-24T12:11:11;24.63;;;22.23;;
14205;SDS011;7186;48.800;9.216;2023-08-24T12:13:36;25.50;;;23.00;;
14205;SDS011;7186;48.800;9.216;2023-08-24T12:16:02;24.73;;;22.33;;
14205;SDS011;7186;48.800;9.216;2023-08-24T12:18:27;25.93;;;23.43;;
14205;SDS011;7186;48.800;9.216;2023-08-24T12:20:53;24.70;;;22.27;;
14205;SDS011;7186;48.800;9.216;2023-08-24T12:23:18;25.43;;;22.93;;
14205;SDS011;7186;48.800;9.216;2023-08-24T12:25:43;25.70;;;23.10;;
14205;SDS011;7186;48.800;9.216;2023-08-24T12:28:13;24.90;;;22.40;;
14205;SDS011;7186;48.800;9.216;2023-08-24T12:30:48;24.90;;;22.40;;
14205;SDS011;7186;48.800;9.216;2023-08-24T12:33:21;25.90;;;23.30;;
14205;SDS011;7186;48.800;9.216;2023-08-24T12:35:46;25.87;;;23.27;;
14205;SDS011;7186;48.800;9.216;2023-08-24T12:38:11;25.60;;;23.00;;
14205;SDS011;7186;48.800;9.216;2023-08-24T12:40:37;25.50;;;22.90;;
14205;SDS011;7186;48.800;9.216;2023-08-24T12:43:02;25.23;;;22.63;;
14205;SDS011;7186;48.800;9.216;2023-08-24T12:45:27;25.40;;;22.80;;
14205;SDS011;7186;48.800;9.216;2023-08-24T12:47:52;25.73;;;23.03;;
14205;SDS011;7186;48.800;9.216;2023-08-24T12:50:17;25.90;;;23.20;;
14205;SDS011;7186;48.800;9.216;2023-08-24T12:52:43;26.33;;;23.63;;
14205;SDS011;7186;48.800;9.216;2023-08-24T12:55:08;25.33;;;22.70;;
14205;SDS011;7186;48.800;9.216;2023-08-24T12:57:34;26.77;;;23.97;;
14205;SDS011;7186;48.800;9.216;2023-08-24T12:59:59;25.77;;;23.13;;
14205;SDS011;7186;48.800;9.216;2023-08-24T13:02:24;26.83;;;24.03;;
14205;SDS011;7186;48.800;9.216;2023-08-24T13:04:49;26.13;;;23.43;;
14205;SDS011;7186;48.800;9.216;2023-08-24T13:07:14;26.70;;;23.97;;
14205;SDS011;7186;48.800;9.216;2023-08-24T13:09:40;26.70;;;23.90;;
14205;SDS011;7186;48.800;9.216;2023-08-24T13:12:05;25.90;;;23.20;;
14205;SDS011;7186;48.800;9.216;2023-08-24T13:14:30;25.83;;;23.13;;
14205;SDS011;7186;48.800;9.216;2023-08-24T13:16:56;26.03;;;23.33;;
14205;SDS011;7186;48.800;9.216;2023-08-24T13:19:21;27.30;;;24.40;;
14205;SDS011;7186;48.800;9.216;2023-08-24T13:21:46;26.80;;;24.00;;
14205;SDS011;7186;48.800;9.216;2023-08-24T13:24:11;27.50;;;24.60;;
14205;SDS011;7186;48.800;9.216;2023-08-24T13:26:36;28.13;;;25.13;;
14205;SDS011;7186;48.800;9.216;2023-08-24T13:29:01;27.33;;;24.37;;
14205;SDS011;7186;48.800;9.216;2023-08-24T13:31:27;26.27;;;23.47;;
14205;SDS011;7186;48.800;9.216;2023-08-24T13:33:54;26.63;;;23.80;;
14205;SDS011;7186;48.800;9.216;2023-08-24T13:36:20;27.37;;;24.17;;
14205;SDS011;7186;48.800;9.216;2023-08-24T13:38:45;28.30;;;25.10;;
14205;SDS011;7186;48.800;9.216;2023-08-24T13:41:10;28.13;;;24.87;;
14205;SDS011;7186;48.800;9.216;2023-08-24T13:43:35;29.20;;;25.13;;
14205;SDS011;7186;48.800;9.216;2023-08-24T13:46:02;30.93;;;25.40;;
14205;SDS011;7186;48.800;9.216;2023-08-24T13:48:27;32.63;;;26.83;;
14205;SDS011;7186;48.800;9.216;2023-08-24T13:50:54;32.77;;;26.20;;
14205;SDS011;7186;48.800;9.216;2023-08-24T13:53:20;36.13;;;27.20;;
14205;SDS011;7186;48.800;9.216;2023-08-24T13:55:46;38.50;;;28.40;;
14205;SDS011;7186;48.800;9.216;2023-08-24T13:58:12;49.23;;;30.57;;
14205;SDS011;7186;48.800;9.216;2023-08-24T14:00:37;52.77;;;30.83;;
14205;SDS011;7186;48.800;9.216;2023-08-24T14:03:02;54.87;;;31.33;;
14205;SDS011;7186;48.800;9.216;2023-08-24T14:05:28;56.70;;;31.87;;
14205;SDS011;7186;48.800;9.216;2023-08-24T14:07:53;43.67;;;28.70;;
14205;SDS011;7186;48.800;9.216;2023-08-24T14:10:18;43.00;;;28.37;;
14205;SDS011;7186;48.800;9.216;2023-08-24T14:12:43;43.20;;;28.63;;
14205;SDS011;7186;48.800;9.216;2023-08-24T14:15:09;41.07;;;27.90;;
14205;SDS011;7186;48.800;9.216;2023-08-24T14:17:34;40.57;;;28.07;;
14205;SDS011;7186;48.800;9.216;2023-08-24T14:19:59;39.30;;;28.10;;
14205;SDS011;7186;48.800;9.216;2023-08-24T14:22:25;37.20;;;27.03;;
14205;SDS011;7186;48.800;9.216;2023-08-24T14:24:50;35.67;;;26.73;;
14205;SDS011;7186;48.800;9.216;2023-08-24T14:27:16;35.90;;;27.17;;
14205;SDS011;7186;48.800;9.216;2023-08-24T14:29:41;36.83;;;28.53;;
14205;SDS011;7186;48.800;9.216;2023-08-24T14:32:06;33.90;;;26.43;;
14205;SDS011;7186;48.800;9.216;2023-08-24T14:34:31;32.47;;;26.00;;
14205;SDS011;7186;48.800;9.216;2023-08-24T14:36:56;32.53;;;26.60;;
14205;SDS011;7186;48.800;9.216;2023-08-24T14:39:22;31.93;;;26.67;;
14205;SDS011;7186;48.800;9.216;2023-08-24T14:41:47;30.67;;;26.13;;